createdAt,value
2018-11-28T00:00:10.438Z,17.90
2018-11-28T00:02:39.235Z,21.23
2018-11-28T00:05:12.426Z,19.67
2018-11-28T00:07:41.080Z,18.37
2018-11-28T00:10:10.775Z,21.50
2018-11-28T00:12:39.392Z,21.13
2018-11-28T00:15:09.117Z,19.97
2018-11-28T00:17:38.003Z,23.60
2018-11-28T00:20:09.810Z,19.43
2018-11-28T00:22:38.136Z,21.90
2018-11-28T00:25:06.841Z,22.40
2018-11-28T00:27:35.071Z,18.83
2018-11-28T00:30:03.372Z,18.13
2018-11-28T00:32:31.983Z,20.73
2018-11-28T00:35:00.216Z,23.13
2018-11-28T00:37:28.479Z,22.13
2018-11-28T00:39:56.711Z,21.87
2018-11-28T00:42:30.227Z,22.20
2018-11-28T00:44:58.739Z,18.57
2018-11-28T00:47:27.013Z,20.53
2018-11-28T00:49:55.267Z,19.03
2018-11-28T00:52:23.520Z,18.00
2018-11-28T00:54:52.073Z,19.77
2018-11-28T00:57:20.348Z,19.07
2018-11-28T00:59:48.628Z,21.53
2018-11-28T01:02:16.869Z,20.60
2018-11-28T01:04:45.116Z,17.80
2018-11-28T01:08:42.795Z,18.17
2018-11-28T01:11:11.053Z,22.43
2018-11-28T01:13:39.299Z,20.47
2018-11-28T01:16:07.815Z,19.43
2018-11-28T01:18:36.080Z,18.20
2018-11-28T01:21:04.326Z,18.27
2018-11-28T01:23:32.568Z,22.13
2018-11-28T01:26:00.826Z,22.10
2018-11-28T01:28:29.116Z,19.90
2018-11-28T01:30:57.374Z,21.03
2018-11-28T01:33:25.637Z,23.30
2018-11-28T01:35:53.859Z,23.97
2018-11-28T01:38:22.193Z,18.30
2018-11-28T01:40:50.436Z,22.50
2018-11-28T01:43:18.688Z,21.07
2018-11-28T01:45:46.963Z,19.20
2018-11-28T01:48:15.207Z,19.27
2018-11-28T01:50:43.464Z,24.63
2018-11-28T01:53:11.708Z,18.23
2018-11-28T01:55:39.977Z,20.53
2018-11-28T01:58:08.184Z,18.50
2018-11-28T02:00:36.514Z,18.37
2018-11-28T02:03:04.793Z,18.83
2018-11-28T02:05:33.047Z,19.63
2018-11-28T02:08:01.304Z,19.50
2018-11-28T02:10:29.539Z,25.20
2018-11-28T02:12:57.784Z,23.53
2018-11-28T02:15:27.831Z,18.60
2018-11-28T02:17:57.008Z,18.07
2018-11-28T02:20:25.276Z,16.77
2018-11-28T02:22:53.748Z,20.53
2018-11-28T02:25:22.036Z,15.83
2018-11-28T02:27:50.600Z,18.30
2018-11-28T02:30:19.607Z,17.47
2018-11-28T02:32:48.614Z,17.73
2018-11-28T02:35:17.405Z,20.53
2018-11-28T02:37:45.659Z,21.30
2018-11-28T02:40:15.197Z,18.93
2018-11-28T02:42:43.579Z,15.07
2018-11-28T02:45:14.592Z,20.67
2018-11-28T02:47:42.860Z,16.07
2018-11-28T02:50:11.154Z,21.40
2018-11-28T02:52:39.427Z,17.63
2018-11-28T02:55:09.196Z,18.30
2018-11-28T02:57:37.493Z,15.93
2018-11-28T03:00:09.812Z,14.57
2018-11-28T03:02:38.067Z,14.77
2018-11-28T03:05:07.777Z,17.70
2018-11-28T03:07:36.023Z,17.47
2018-11-28T03:10:06.113Z,16.40
2018-11-28T03:12:34.371Z,18.70
2018-11-28T03:15:02.601Z,19.20
2018-11-28T03:17:30.874Z,16.37
2018-11-28T03:19:59.155Z,20.97
2018-11-28T03:22:27.376Z,15.03
2018-11-28T03:24:55.600Z,15.30
2018-11-28T03:27:23.835Z,17.20
2018-11-28T03:29:52.068Z,18.27
2018-11-28T03:32:20.301Z,14.93
2018-11-28T03:34:48.594Z,16.13
2018-11-28T03:37:16.853Z,14.13
2018-11-28T03:39:45.132Z,17.67
2018-11-28T03:42:13.352Z,16.23
2018-11-28T03:44:41.600Z,16.77
2018-11-28T03:47:09.861Z,16.50
2018-11-28T03:49:38.114Z,16.83
2018-11-28T03:52:06.393Z,17.30
2018-11-28T03:54:34.623Z,16.23
2018-11-28T03:57:02.888Z,14.43
2018-11-28T03:59:31.161Z,19.13
2018-11-28T04:01:59.408Z,16.20
2018-11-28T04:04:27.619Z,16.67
2018-11-28T04:06:55.897Z,22.57
2018-11-28T04:09:24.148Z,16.60
2018-11-28T04:11:52.389Z,19.97
2018-11-28T04:14:20.626Z,13.55
2018-11-28T04:16:48.916Z,19.50
2018-11-28T04:19:17.117Z,16.90
2018-11-28T04:21:45.385Z,16.33
2018-11-28T04:24:13.625Z,14.73
2018-11-28T04:26:41.884Z,16.40
2018-11-28T04:29:10.143Z,17.73
2018-11-28T04:31:38.692Z,19.70
2018-11-28T04:34:06.980Z,18.23
2018-11-28T04:36:35.208Z,21.00
2018-11-28T04:39:04.357Z,22.27
2018-11-28T04:41:32.610Z,18.23
2018-11-28T04:44:00.930Z,20.60
2018-11-28T04:46:29.188Z,19.27
2018-11-28T04:48:57.443Z,20.43
2018-11-28T04:51:25.688Z,17.40
2018-11-28T04:53:53.939Z,18.93
2018-11-28T04:56:22.199Z,19.17
2018-11-28T04:58:50.467Z,20.70
2018-11-28T05:01:18.692Z,20.37
2018-11-28T05:03:46.952Z,17.33
2018-11-28T05:06:25.158Z,16.67
2018-11-28T05:08:53.452Z,16.67
2018-11-28T05:11:21.687Z,17.27
2018-11-28T05:13:49.939Z,16.30
2018-11-28T05:16:18.197Z,17.17
2018-11-28T05:18:46.415Z,17.07
2018-11-28T05:21:14.671Z,16.12
2018-11-28T05:23:42.931Z,14.27
2018-11-28T05:26:11.172Z,15.27
2018-11-28T05:28:39.460Z,15.23
2018-11-28T05:31:07.711Z,12.87
2018-11-28T05:33:35.946Z,14.13
2018-11-28T05:36:04.168Z,24.97
2018-11-28T05:40:01.897Z,15.07
2018-11-28T05:42:30.100Z,14.07
2018-11-28T05:44:58.365Z,14.60
2018-11-28T05:47:26.575Z,16.53
2018-11-28T05:49:54.827Z,16.30
2018-11-28T05:52:23.060Z,18.30
2018-11-28T05:54:51.296Z,17.30
2018-11-28T05:57:19.554Z,16.17
2018-11-28T05:59:47.820Z,18.60
2018-11-28T06:02:16.071Z,18.20
2018-11-28T06:04:44.297Z,15.70
2018-11-28T06:07:12.546Z,17.20
2018-11-28T06:09:40.792Z,15.93
2018-11-28T06:12:09.717Z,18.87
2018-11-28T06:14:38.000Z,17.90
2018-11-28T06:17:06.225Z,20.40
2018-11-28T06:19:34.452Z,21.53
2018-11-28T06:22:02.664Z,22.00
2018-11-28T06:24:30.911Z,22.60
2018-11-28T06:26:59.158Z,27.27
2018-11-28T06:29:27.405Z,24.47
2018-11-28T06:31:55.615Z,26.33
2018-11-28T06:34:24.096Z,25.87
2018-11-28T06:36:52.283Z,27.37
2018-11-28T06:39:20.501Z,28.57
2018-11-28T06:41:48.981Z,28.23
2018-11-28T06:44:17.211Z,32.90
2018-11-28T06:46:45.416Z,32.50
2018-11-28T06:49:13.664Z,33.30
2018-11-28T06:51:41.872Z,30.13
2018-11-28T06:54:10.212Z,29.67
2018-11-28T06:56:38.456Z,34.23
2018-11-28T06:59:06.715Z,33.60
2018-11-28T07:01:35.101Z,30.17
2018-11-28T07:04:04.610Z,30.73
2018-11-28T07:06:32.904Z,31.40
2018-11-28T07:09:01.386Z,28.43
2018-11-28T07:11:29.672Z,28.80
2018-11-28T07:13:57.940Z,29.23
2018-11-28T07:16:27.113Z,26.60
2018-11-28T07:19:06.308Z,26.83
2018-11-28T07:21:34.843Z,31.03
2018-11-28T07:24:03.246Z,24.33
2018-11-28T07:26:31.610Z,26.23
2018-11-28T07:28:59.925Z,25.13
2018-11-28T07:31:28.184Z,23.60
2018-11-28T07:33:56.522Z,24.33
2018-11-28T07:36:24.723Z,40.37
2018-11-28T07:38:54.199Z,25.17
2018-11-28T07:41:21.986Z,26.40
2018-11-28T07:43:50.238Z,26.23
2018-11-28T07:46:18.590Z,28.43
2018-11-28T07:48:47.508Z,28.40
2018-11-28T07:51:15.823Z,25.70
2018-11-28T07:53:44.034Z,27.97
2018-11-28T07:56:12.347Z,23.80
2018-11-28T07:58:40.564Z,23.50
2018-11-28T08:01:08.886Z,24.27
2018-11-28T08:03:37.317Z,28.03
2018-11-28T08:06:05.687Z,24.17
2018-11-28T08:08:56.870Z,25.20
2018-11-28T08:11:25.180Z,26.23
2018-11-28T08:13:53.449Z,28.10
2018-11-28T08:16:21.746Z,23.10
2018-11-28T08:18:49.963Z,27.33
2018-11-28T08:21:18.210Z,24.40
2018-11-28T08:23:46.527Z,26.00
2018-11-28T08:26:14.876Z,28.90
2018-11-28T08:28:43.096Z,25.43
2018-11-28T08:31:11.372Z,23.23
2018-11-28T08:33:39.649Z,25.93
2018-11-28T08:36:07.910Z,30.10
2018-11-28T08:38:36.292Z,24.03
2018-11-28T08:41:04.702Z,25.00
2018-11-28T08:43:32.941Z,28.70
2018-11-28T08:46:01.255Z,25.83
2018-11-28T08:48:29.658Z,30.03
2018-11-28T08:50:57.994Z,26.50
2018-11-28T08:53:26.327Z,37.43
2018-11-28T08:55:54.701Z,29.00
2018-11-28T08:58:22.917Z,28.47
2018-11-28T09:00:51.494Z,28.10
2018-11-28T09:03:19.804Z,25.20
2018-11-28T09:05:48.059Z,31.77
2018-11-28T09:08:16.396Z,26.27
2018-11-28T09:10:44.735Z,26.45
2018-11-28T09:13:13.281Z,24.20
2018-11-28T09:15:41.741Z,29.20
2018-11-28T09:24:54.048Z,24.70
2018-11-28T09:27:22.496Z,29.93
2018-11-28T09:29:50.947Z,28.60
2018-11-28T09:32:19.248Z,27.70
2018-11-28T09:34:47.707Z,24.80
2018-11-28T09:37:16.033Z,25.27
2018-11-28T09:39:44.345Z,25.20
2018-11-28T09:42:12.559Z,24.87
2018-11-28T09:44:40.829Z,31.77
2018-11-28T09:47:09.096Z,25.70
2018-11-28T09:49:37.376Z,26.87
2018-11-28T09:52:05.857Z,30.07
2018-11-28T09:54:34.344Z,30.60
2018-11-28T09:57:02.682Z,24.50
2018-11-28T09:59:30.973Z,23.92
2018-11-28T10:01:59.301Z,25.43
2018-11-28T10:04:28.573Z,23.90
2018-11-28T10:06:56.894Z,25.53
2018-11-28T10:09:25.216Z,22.30
2018-11-28T10:11:53.618Z,22.73
2018-11-28T10:14:22.191Z,23.65
2018-11-28T10:16:51.619Z,27.13
2018-11-28T10:19:19.488Z,27.93
2018-11-28T10:21:48.444Z,23.43
2018-11-28T10:24:16.788Z,27.05
2018-11-28T10:26:45.228Z,28.13
2018-11-28T10:29:15.326Z,26.30
2018-11-28T10:31:43.607Z,24.20
2018-11-28T10:34:11.902Z,28.67
2018-11-28T10:36:40.243Z,26.97
2018-11-28T10:39:09.848Z,29.40
2018-11-28T10:41:38.524Z,30.43
2018-11-28T10:44:07.051Z,30.17
2018-11-28T10:46:35.350Z,29.57
2018-11-28T10:49:03.608Z,32.00
2018-11-28T10:51:32.047Z,29.25
2018-11-28T10:54:00.327Z,35.38
2018-11-28T10:56:30.072Z,29.15
2018-11-28T10:58:58.365Z,27.90
2018-11-28T11:01:27.033Z,31.83
2018-11-28T11:03:59.817Z,28.30
2018-11-28T11:06:35.154Z,29.13
2018-11-28T11:09:08.833Z,30.10
2018-11-28T11:11:42.724Z,28.32
2018-11-28T11:14:16.377Z,30.67
2018-11-28T11:16:44.696Z,28.70
2018-11-28T11:19:12.952Z,32.70
2018-11-28T11:21:41.227Z,28.63
2018-11-28T11:24:09.687Z,27.87
2018-11-28T11:26:37.968Z,28.70
2018-11-28T11:29:06.504Z,34.80
2018-11-28T11:31:34.882Z,29.87
2018-11-28T11:34:03.134Z,29.80
2018-11-28T11:36:31.504Z,27.47
2018-11-28T11:38:59.929Z,28.13
2018-11-28T11:41:28.296Z,28.17
2018-11-28T11:43:56.556Z,27.70
2018-11-28T11:46:25.164Z,30.47
2018-11-28T11:48:53.777Z,28.37
2018-11-28T11:51:22.036Z,28.47
2018-11-28T11:53:50.325Z,30.90
2018-11-28T11:56:18.597Z,31.90
2018-11-28T11:58:46.911Z,29.97
2018-11-28T12:01:15.405Z,36.63
2018-11-28T12:03:43.927Z,27.77
2018-11-28T12:06:12.490Z,30.20
2018-11-28T12:08:40.887Z,38.80
2018-11-28T12:11:09.162Z,30.57
2018-11-28T12:13:37.446Z,31.23
2018-11-28T12:16:06.569Z,34.47
2018-11-28T12:18:34.974Z,36.60
2018-11-28T12:21:05.397Z,29.63
2018-11-28T12:23:33.672Z,32.57
2018-11-28T12:26:01.934Z,30.60
2018-11-28T12:28:30.209Z,31.70
2018-11-28T12:30:58.416Z,27.70
2018-11-28T12:33:26.723Z,30.07
2018-11-28T12:35:54.967Z,28.43
2018-11-28T12:38:23.315Z,28.47
2018-11-28T12:40:52.202Z,28.87
2018-11-28T12:43:20.432Z,27.43
2018-11-28T12:45:49.677Z,28.90
2018-11-28T12:48:17.975Z,32.73
2018-11-28T12:50:46.493Z,30.30
2018-11-28T12:54:44.308Z,32.50
2018-11-28T12:57:12.601Z,28.00
2018-11-28T12:59:41.074Z,30.93
2018-11-28T13:02:09.318Z,30.37
2018-11-28T13:04:37.647Z,34.07
2018-11-28T13:07:06.184Z,30.15
2018-11-28T13:09:34.479Z,31.48
2018-11-28T13:12:03.754Z,28.77
2018-11-28T13:14:32.102Z,37.98
2018-11-28T13:17:00.391Z,34.40
2018-11-28T13:19:28.679Z,29.70
2018-11-28T13:21:56.929Z,33.92
2018-11-28T13:24:25.179Z,31.50
2018-11-28T13:26:53.445Z,30.53
2018-11-28T13:29:22.797Z,33.17
2018-11-28T13:31:51.116Z,29.27
2018-11-28T13:34:19.491Z,30.77
2018-11-28T13:36:47.792Z,28.52
2018-11-28T13:39:16.065Z,29.07
2018-11-28T13:41:44.311Z,35.17
2018-11-28T13:44:12.636Z,30.95
2018-11-28T13:46:40.946Z,31.83
2018-11-28T13:49:09.235Z,35.90
2018-11-28T13:51:37.604Z,29.00
2018-11-28T13:54:20.936Z,31.27
2018-11-28T13:59:02.885Z,35.90
2018-11-28T14:01:31.220Z,31.20
2018-11-28T14:03:59.532Z,34.47
2018-11-28T14:06:27.841Z,36.67
2018-11-28T14:08:56.176Z,39.20
2018-11-28T14:11:24.653Z,33.70
2018-11-28T14:13:53.048Z,32.40
2018-11-28T14:16:21.589Z,34.80
2018-11-28T14:18:49.879Z,36.60
2018-11-28T14:21:18.192Z,35.17
2018-11-28T14:23:46.467Z,34.13
2018-11-28T14:26:14.752Z,34.03
2018-11-28T14:28:42.995Z,35.75
2018-11-28T14:31:11.301Z,39.42
2018-11-28T14:33:39.539Z,36.30
2018-11-28T14:36:07.872Z,37.77
2018-11-28T14:38:36.870Z,36.33
2018-11-28T14:41:06.212Z,36.83
2018-11-28T14:43:34.508Z,37.03
2018-11-28T14:46:02.790Z,34.40
2018-11-28T14:48:31.100Z,32.70
2018-11-28T14:50:59.353Z,31.07
2018-11-28T14:53:27.629Z,29.30
2018-11-28T14:55:55.916Z,31.45
2018-11-28T14:58:24.261Z,33.63
2018-11-28T15:00:52.747Z,35.03
2018-11-28T15:03:21.203Z,30.27
2018-11-28T15:05:57.311Z,33.88
2018-11-28T15:08:25.827Z,32.33
2018-11-28T15:11:09.341Z,30.83
2018-11-28T15:13:38.119Z,35.77
2018-11-28T15:16:06.586Z,36.00
2018-11-28T15:18:34.982Z,33.67
2018-11-28T15:21:05.049Z,31.35
2018-11-28T15:23:33.324Z,33.50
2018-11-28T15:26:01.652Z,29.63
2018-11-28T15:28:30.024Z,27.90
2018-11-28T15:30:58.413Z,28.67
2018-11-28T15:33:26.660Z,28.50
2018-11-28T15:35:55.141Z,26.57
2018-11-28T15:38:23.621Z,31.70
2018-11-28T15:40:52.178Z,29.47
2018-11-28T15:43:20.818Z,31.37
2018-11-28T15:45:49.041Z,34.83
2018-11-28T15:51:09.983Z,32.07
2018-11-28T15:53:38.349Z,30.20
2018-11-28T15:56:06.768Z,30.57
2018-11-28T15:58:35.969Z,29.33
2018-11-28T16:01:04.293Z,32.70
2018-11-28T16:03:32.859Z,26.20
2018-11-28T16:06:01.102Z,28.07
2018-11-28T16:08:29.533Z,28.33
2018-11-28T16:10:57.819Z,26.30
2018-11-28T16:13:26.075Z,28.97
2018-11-28T16:15:55.639Z,22.43
2018-11-28T16:18:23.924Z,24.97
2018-11-28T16:20:52.267Z,25.30
2018-11-28T16:23:20.512Z,32.08
2018-11-28T16:25:48.959Z,29.35
2018-11-28T16:28:17.197Z,26.57
2018-11-28T16:30:45.483Z,27.17
2018-11-28T16:33:14.011Z,26.73
2018-11-28T16:35:42.267Z,27.80
2018-11-28T16:38:10.529Z,28.17
2018-11-28T16:40:38.807Z,26.70
2018-11-28T16:43:07.140Z,28.50
2018-11-28T16:45:35.509Z,29.80
2018-11-28T16:48:04.013Z,27.10
2018-11-28T16:50:32.324Z,29.67
2018-11-28T16:53:00.585Z,28.83
2018-11-28T16:55:28.871Z,30.80
2018-11-28T16:57:57.152Z,25.97
2018-11-28T17:00:27.547Z,29.07
2018-11-28T17:02:56.198Z,32.20
2018-11-28T17:05:24.667Z,28.00
2018-11-28T17:07:53.445Z,28.77
2018-11-28T17:10:26.691Z,28.63
2018-11-28T17:12:55.558Z,33.67
2018-11-28T17:15:23.950Z,27.27
2018-11-28T17:17:52.226Z,33.50
2018-11-28T17:20:21.644Z,28.10
2018-11-28T17:22:51.039Z,29.87
2018-11-28T17:25:24.446Z,29.35
2018-11-28T17:27:52.722Z,30.52
2018-11-28T17:30:24.975Z,28.97
2018-11-28T17:32:53.241Z,27.35
2018-11-28T17:35:21.485Z,27.58
2018-11-28T17:37:50.423Z,31.50
2018-11-28T17:40:23.899Z,29.65
2018-11-28T17:42:53.460Z,30.12
2018-11-28T17:45:22.035Z,30.40
2018-11-28T17:47:50.313Z,28.10
2018-11-28T17:50:21.566Z,30.30
2018-11-28T17:53:00.160Z,27.50
2018-11-28T17:55:30.053Z,31.87
2018-11-28T17:57:58.324Z,31.37
2018-11-28T18:00:26.600Z,32.87
2018-11-28T18:02:54.844Z,29.90
2018-11-28T18:05:23.101Z,28.77
2018-11-28T18:07:51.349Z,33.00
2018-11-28T18:10:20.856Z,26.87
2018-11-28T18:13:02.007Z,29.40
2018-11-28T18:15:30.306Z,33.07
2018-11-28T18:17:58.601Z,34.80
2018-11-28T18:20:26.868Z,33.37
2018-11-28T18:22:55.217Z,30.73
2018-11-28T18:25:24.510Z,31.80
2018-11-28T18:27:52.788Z,30.50
2018-11-28T18:30:21.509Z,33.27
2018-11-28T18:32:49.784Z,38.50
2018-11-28T18:35:18.119Z,38.00
2018-11-28T18:37:46.364Z,35.90
2018-11-28T18:40:14.683Z,34.00
2018-11-28T18:42:43.176Z,33.90
2018-11-28T18:45:15.813Z,32.90
2018-11-28T18:47:44.122Z,33.53
2018-11-28T18:50:13.228Z,36.70
2018-11-28T18:52:41.645Z,32.67
2018-11-28T18:55:16.778Z,37.50
2018-11-28T18:57:42.422Z,36.87
2018-11-28T19:00:14.197Z,37.47
2018-11-28T19:02:42.753Z,37.77
2018-11-28T19:05:10.437Z,40.20
2018-11-28T19:07:38.672Z,35.67
2018-11-28T19:10:11.164Z,36.50
2018-11-28T19:12:39.465Z,36.20
2018-11-28T19:15:12.479Z,33.93
2018-11-28T19:17:40.931Z,31.17
2018-11-28T19:20:12.328Z,34.13
2018-11-28T19:24:09.802Z,32.37
2018-11-28T19:26:38.031Z,31.50
2018-11-28T19:29:06.327Z,36.50
2018-11-28T19:31:34.572Z,35.90
2018-11-28T19:34:02.852Z,35.43
2018-11-28T19:36:31.152Z,37.50
2018-11-28T19:38:59.403Z,35.80
2018-11-28T19:41:27.662Z,35.10
2018-11-28T19:43:55.963Z,33.53
2018-11-28T19:46:24.196Z,30.93
2018-11-28T19:48:52.429Z,35.60
2018-11-28T19:51:20.676Z,37.40
2018-11-28T19:53:48.923Z,36.33
2018-11-28T19:56:17.356Z,38.00
2018-11-28T19:58:45.600Z,37.20
2018-11-28T20:01:13.873Z,37.20
2018-11-28T20:03:42.123Z,31.23
2018-11-28T20:06:10.355Z,32.53
2018-11-28T20:08:38.598Z,41.60
2018-11-28T20:11:06.848Z,35.90
2018-11-28T20:13:35.104Z,38.03
2018-11-28T20:16:03.335Z,32.27
2018-11-28T20:18:31.811Z,34.40
2018-11-28T20:21:00.067Z,32.03
2018-11-28T20:23:28.298Z,40.03
2018-11-28T20:25:56.534Z,35.93
2018-11-28T20:28:24.776Z,34.60
2018-11-28T20:30:52.983Z,33.03
2018-11-28T20:33:21.256Z,32.80
2018-11-28T20:35:49.973Z,33.63
2018-11-28T20:38:22.680Z,33.00
2018-11-28T20:40:51.002Z,31.63
2018-11-28T20:43:19.284Z,34.77
2018-11-28T20:45:47.590Z,30.50
2018-11-28T20:48:15.903Z,37.33
2018-11-28T20:50:44.200Z,31.17
2018-11-28T20:53:18.521Z,31.57
2018-11-28T20:55:46.988Z,33.20
2018-11-28T20:58:15.225Z,31.40
2018-11-28T21:00:43.565Z,36.97
2018-11-28T21:03:11.919Z,31.70
2018-11-28T21:05:40.279Z,31.93
2018-11-28T21:08:09.503Z,28.50
2018-11-28T21:10:38.692Z,32.43
2018-11-28T21:13:11.960Z,32.17
2018-11-28T21:15:40.872Z,31.60
2018-11-28T21:18:09.343Z,35.70
2018-11-28T21:20:38.318Z,30.10
2018-11-28T21:23:10.789Z,29.20
2018-11-28T21:25:39.019Z,35.13
2018-11-28T21:28:07.286Z,33.33
2018-11-28T21:35:18.416Z,33.60
2018-11-28T21:37:46.704Z,31.73
2018-11-28T21:40:14.990Z,33.00
2018-11-28T21:42:43.256Z,29.03
2018-11-28T21:45:13.674Z,34.07
2018-11-28T21:47:42.025Z,36.53
2018-11-28T21:50:12.709Z,36.60
2018-11-28T21:52:40.940Z,34.27
2018-11-28T21:55:13.412Z,32.83
2018-11-28T21:57:41.659Z,36.30
2018-11-28T22:00:12.479Z,40.60
2018-11-28T22:02:40.748Z,35.13
2018-11-28T22:05:10.219Z,35.80
2018-11-28T22:07:38.491Z,30.93
2018-11-28T22:10:14.849Z,41.60
2018-11-28T22:12:43.181Z,41.40
2018-11-28T22:15:13.085Z,30.10
2018-11-28T22:17:43.423Z,34.23
2018-11-28T22:20:13.369Z,34.60
2018-11-28T22:22:41.659Z,37.47
2018-11-28T22:25:15.303Z,35.37
2018-11-28T22:27:43.348Z,32.77
2018-11-28T22:30:13.861Z,37.37
2018-11-28T22:32:42.136Z,34.47
2018-11-28T22:35:10.415Z,31.00
2018-11-28T22:37:38.693Z,34.50
2018-11-28T22:40:24.978Z,36.53
2018-11-28T22:42:53.224Z,31.97
2018-11-28T22:45:23.539Z,34.77
2018-11-28T22:47:52.032Z,30.77
2018-11-28T22:50:20.304Z,32.50
2018-11-28T22:52:48.582Z,31.37
2018-11-28T22:55:17.417Z,41.80
2018-11-28T22:57:45.627Z,36.90
2018-11-28T23:00:23.019Z,34.63
2018-11-28T23:03:05.639Z,28.70
2018-11-28T23:05:42.008Z,28.80
2018-11-28T23:08:11.253Z,34.87
2018-11-28T23:10:39.719Z,32.97
2018-11-28T23:13:09.032Z,36.13
2018-11-28T23:15:37.367Z,32.07
2018-11-28T23:18:06.297Z,38.40
2018-11-28T23:20:34.558Z,35.07
2018-11-28T23:23:02.839Z,34.70
2018-11-28T23:25:31.099Z,33.53
2018-11-28T23:27:59.407Z,36.53
2018-11-28T23:30:27.688Z,32.60
2018-11-28T23:32:55.991Z,29.33
2018-11-28T23:35:24.811Z,32.70
2018-11-28T23:37:53.115Z,29.57
2018-11-28T23:40:23.187Z,31.80
2018-11-28T23:42:51.995Z,38.73
2018-11-28T23:45:20.340Z,38.97
2018-11-28T23:47:49.156Z,34.93
2018-11-28T23:50:18.321Z,35.90
2018-11-28T23:52:47.161Z,35.47
2018-11-28T23:55:18.311Z,37.77
2018-11-28T23:57:46.659Z,33.80
